Archival Weather

Chicago O'Hare International

Chicago, Illinois (KORD)

Report from: Saturday, December 31, 2022 10:51 AM CST
Current time: Friday, April 19, 2024 4:06 AM CDT

Current weather – Weather history – Daily summaries
Weather forecast

Temperature0.6°C (33.1°F)
Dew point-3.3°C (26.1°F)
Winds Calm
Visibility10 mi. (16.1 km)
Clouds Ceiling: Broken clouds 18,000 ft. (5,486 m)
Broken clouds 25,000 ft. (7,620 m)
Altimeter29.94 in.Hg (1014 mB)
Relative humidity75 %
Density altitude-1,732 ft. (-528 m)
Sea-level pressure101.5 kPa (1015 mB, 29.96 in.Hg)
Remarks Automated weather observing station with precipitation discriminator
Flight conditions Visual Meteorological Conditions
Raw dataKORD 311651Z 00000KT 10SM BKN180 BKN250 01/M03 A2994 RMK AO2 SLP147 T00061033
An error has occurred. This application may no longer respond until reloaded. Reload 🗙